createdAt,value
2018-03-07T00:00:58.405Z,94.98
2018-03-07T00:01:58.429Z,94.51
2018-03-07T00:02:58.439Z,94.37
2018-03-07T00:03:58.412Z,94.56
2018-03-07T00:04:58.408Z,95.22
2018-03-07T00:05:58.438Z,95.27
2018-03-07T00:06:58.417Z,94.60
2018-03-07T00:07:58.414Z,94.51
2018-03-07T00:08:58.420Z,94.51
2018-03-07T00:09:58.528Z,94.70
2018-03-07T00:10:58.409Z,94.60
2018-03-07T00:11:58.412Z,94.46
2018-03-07T00:12:58.426Z,94.56
2018-03-07T00:13:58.411Z,94.89
2018-03-07T00:14:58.462Z,94.93
2018-03-07T00:15:58.469Z,95.12
2018-03-07T00:16:58.407Z,94.84
2018-03-07T00:17:58.413Z,95.22
2018-03-07T00:18:58.412Z,94.93
2018-03-07T00:19:58.442Z,94.93
2018-03-07T00:20:58.433Z,95.12
2018-03-07T00:21:58.423Z,94.56
2018-03-07T00:22:58.435Z,94.46
2018-03-07T00:23:58.420Z,94.74
2018-03-07T00:24:58.427Z,94.89
2018-03-07T00:25:58.425Z,95.03
2018-03-07T00:26:58.420Z,95.22
2018-03-07T00:27:58.424Z,94.51
2018-03-07T00:28:58.425Z,94.60
2018-03-07T00:29:58.447Z,94.70
2018-03-07T00:30:58.435Z,94.56
2018-03-07T00:31:58.416Z,95.12
2018-03-07T00:32:58.423Z,94.98
2018-03-07T00:33:58.430Z,94.51
2018-03-07T00:34:58.424Z,94.70
2018-03-07T00:35:58.428Z,94.13
2018-03-07T00:36:58.432Z,94.37
2018-03-07T00:37:58.428Z,94.65
2018-03-07T00:38:58.463Z,94.65
2018-03-07T00:39:58.436Z,94.46
2018-03-07T00:40:58.423Z,94.93
2018-03-07T00:41:58.442Z,94.93
2018-03-07T00:42:58.460Z,94.70
2018-03-07T00:43:58.475Z,94.93
2018-03-07T00:44:58.464Z,94.93
2018-03-07T00:45:58.470Z,94.93
2018-03-07T00:46:58.432Z,94.93
2018-03-07T00:47:58.473Z,95.51
2018-03-07T00:48:58.436Z,95.51
2018-03-07T00:49:58.458Z,95.79
2018-03-07T00:50:58.458Z,96.08
2018-03-07T00:51:58.458Z,96.08
2018-03-07T00:52:58.454Z,96.17
2018-03-07T00:53:58.430Z,96.17
2018-03-07T00:54:58.428Z,96.08
2018-03-07T00:55:58.434Z,96.26
2018-03-07T00:56:58.485Z,96.74
2018-03-07T00:57:58.449Z,96.69
2018-03-07T00:58:58.482Z,96.98
2018-03-07T00:59:58.479Z,97.45
2018-03-07T01:00:58.436Z,97.07
2018-03-07T01:01:58.437Z,97.83
2018-03-07T01:02:58.436Z,97.92
2018-03-07T01:03:58.458Z,98.97
2018-03-07T01:04:58.440Z,97.92
2018-03-07T01:05:58.493Z,98.88
2018-03-07T01:06:58.475Z,99.16
2018-03-07T01:07:58.457Z,98.21
2018-03-07T01:08:58.479Z,98.26
2018-03-07T01:09:58.442Z,99.02
2018-03-07T01:10:58.443Z,98.73
2018-03-07T01:11:58.440Z,98.92
2018-03-07T01:12:58.438Z,99.40
2018-03-07T01:13:58.472Z,99.11
2018-03-07T01:14:58.466Z,99.49
2018-03-07T01:15:58.452Z,99.49
2018-03-07T01:16:58.447Z,99.87
2018-03-07T01:17:58.448Z,99.97
2018-03-07T01:18:58.442Z,99.68
2018-03-07T01:19:58.477Z,99.87
2018-03-07T01:20:58.447Z,99.68
2018-03-07T01:21:58.454Z,99.97
2018-03-07T01:22:58.449Z,99.21
2018-03-07T01:23:58.581Z,98.92
2018-03-07T01:24:59.393Z,99.77
2018-03-07T01:25:58.452Z,99.30
2018-03-07T01:26:58.494Z,99.49
2018-03-07T01:27:58.456Z,99.77
2018-03-07T01:28:58.463Z,99.54
2018-03-07T01:29:58.462Z,99.49
2018-03-07T01:30:58.452Z,99.87
2018-03-07T01:31:58.451Z,99.97
2018-03-07T01:32:58.450Z,99.68
2018-03-07T01:33:58.456Z,99.97
2018-03-07T01:34:58.455Z,99.99
2018-03-07T01:35:58.454Z,99.99
2018-03-07T01:36:58.457Z,99.99
2018-03-07T01:37:58.457Z,99.99
2018-03-07T01:38:58.489Z,99.99
2018-03-07T01:39:58.482Z,99.99
2018-03-07T01:40:58.469Z,99.99
2018-03-07T01:41:58.459Z,99.99
2018-03-07T01:42:58.480Z,99.99
2018-03-07T01:43:58.487Z,99.99
2018-03-07T01:44:58.461Z,99.99
2018-03-07T01:45:58.506Z,99.99
2018-03-07T01:46:58.457Z,99.99
2018-03-07T01:47:58.456Z,99.99
2018-03-07T01:48:58.495Z,99.99
2018-03-07T01:49:58.462Z,99.99
2018-03-07T01:50:59.398Z,99.99
2018-03-07T01:51:58.458Z,99.99
2018-03-07T01:52:58.498Z,99.99
2018-03-07T01:53:58.484Z,99.99
2018-03-07T01:54:58.471Z,99.99
2018-03-07T01:55:58.456Z,99.99
2018-03-07T01:56:59.401Z,99.99
2018-03-07T01:57:58.473Z,99.99
2018-03-07T01:58:58.520Z,99.99
2018-03-07T01:59:58.482Z,99.99
2018-03-07T02:00:58.472Z,99.99
2018-03-07T02:01:58.466Z,99.99
2018-03-07T02:02:58.478Z,99.99
2018-03-07T02:03:58.527Z,99.99
2018-03-07T02:04:58.473Z,99.99
2018-03-07T02:05:58.466Z,99.99
2018-03-07T02:06:58.519Z,99.99
2018-03-07T02:07:58.497Z,99.99
2018-03-07T02:08:59.399Z,99.99
2018-03-07T02:09:58.476Z,99.99
2018-03-07T02:10:58.466Z,99.99
2018-03-07T02:11:58.472Z,99.99
2018-03-07T02:12:58.508Z,99.99
2018-03-07T02:13:58.475Z,99.99
2018-03-07T02:14:58.521Z,99.99
2018-03-07T02:15:58.510Z,99.99
2018-03-07T02:16:58.470Z,99.99
2018-03-07T02:17:58.467Z,99.99
2018-03-07T02:18:58.485Z,99.99
2018-03-07T02:19:58.512Z,99.99
2018-03-07T02:20:58.483Z,99.99
2018-03-07T02:21:58.599Z,99.99
2018-03-07T02:22:58.496Z,99.99
2018-03-07T02:23:58.514Z,99.99
2018-03-07T02:24:58.491Z,99.99
2018-03-07T02:25:58.501Z,99.99
2018-03-07T02:26:58.512Z,99.99
2018-03-07T02:27:58.471Z,99.99
2018-03-07T02:28:58.595Z,99.99
2018-03-07T02:29:58.497Z,99.99
2018-03-07T02:30:58.484Z,99.99
2018-03-07T02:31:58.532Z,99.99
2018-03-07T02:32:58.502Z,99.99
2018-03-07T02:33:58.476Z,99.99
2018-03-07T02:34:58.478Z,99.99
2018-03-07T02:35:58.495Z,99.99
2018-03-07T02:36:58.528Z,99.99
2018-03-07T02:37:58.491Z,99.99
2018-03-07T02:38:58.494Z,99.99
2018-03-07T02:39:58.475Z,99.99
2018-03-07T02:40:58.503Z,99.99
2018-03-07T02:41:58.480Z,99.99
2018-03-07T02:42:58.488Z,99.99
2018-03-07T02:43:58.484Z,99.99
2018-03-07T02:44:58.500Z,99.99
2018-03-07T02:45:58.485Z,99.99
2018-03-07T02:46:58.492Z,99.99
2018-03-07T02:47:58.490Z,99.99
2018-03-07T02:48:58.490Z,99.99
2018-03-07T02:49:58.481Z,99.99
2018-03-07T02:50:58.539Z,99.99
2018-03-07T02:51:58.483Z,99.99
2018-03-07T02:52:58.518Z,99.99
2018-03-07T02:53:58.485Z,99.99
2018-03-07T02:54:58.492Z,99.99
2018-03-07T02:55:58.555Z,99.99
2018-03-07T02:56:58.511Z,99.99
2018-03-07T02:57:58.488Z,99.99
2018-03-07T02:58:58.482Z,99.99
2018-03-07T02:59:58.501Z,99.99
2018-03-07T03:00:58.489Z,99.99
2018-03-07T03:01:58.517Z,99.99
2018-03-07T03:02:58.492Z,99.99
2018-03-07T03:03:58.491Z,99.99
2018-03-07T03:04:58.494Z,99.99
2018-03-07T03:05:58.492Z,99.99
2018-03-07T03:06:58.518Z,99.99
2018-03-07T03:07:58.492Z,99.99
2018-03-07T03:08:58.496Z,99.99
2018-03-07T03:09:58.664Z,99.99
2018-03-07T03:10:58.492Z,99.99
2018-03-07T03:11:58.492Z,99.99
2018-03-07T03:12:58.495Z,99.99
2018-03-07T03:13:58.490Z,99.99
2018-03-07T03:14:58.487Z,99.99
2018-03-07T03:15:58.490Z,99.99
2018-03-07T03:16:58.521Z,99.99
2018-03-07T03:17:58.502Z,99.99
2018-03-07T03:18:58.493Z,99.99
2018-03-07T03:19:58.492Z,99.99
2018-03-07T03:20:58.497Z,99.99
2018-03-07T03:21:58.530Z,99.99
2018-03-07T03:22:58.548Z,99.99
2018-03-07T03:23:58.514Z,99.99
2018-03-07T03:24:58.518Z,99.99
2018-03-07T03:25:58.507Z,99.99
2018-03-07T03:26:58.502Z,99.99
2018-03-07T03:27:58.513Z,99.99
2018-03-07T03:28:58.501Z,99.99
2018-03-07T03:29:58.491Z,99.99
2018-03-07T03:30:58.498Z,99.99
2018-03-07T03:31:58.522Z,99.99
2018-03-07T03:32:58.511Z,99.99
2018-03-07T03:33:58.489Z,99.99
2018-03-07T03:34:58.493Z,99.99
2018-03-07T03:35:59.420Z,99.99
2018-03-07T03:36:58.519Z,99.99
2018-03-07T03:37:58.520Z,99.99
2018-03-07T03:38:58.503Z,99.99
2018-03-07T03:39:58.576Z,99.99
2018-03-07T03:40:58.494Z,99.99
2018-03-07T03:41:58.494Z,99.99
2018-03-07T03:42:58.515Z,99.99
2018-03-07T03:43:58.652Z,99.99
2018-03-07T03:44:58.494Z,99.99
2018-03-07T03:45:58.498Z,99.99
2018-03-07T03:46:58.524Z,99.99
2018-03-07T03:47:58.522Z,99.99
2018-03-07T03:48:58.635Z,99.99
2018-03-07T03:49:58.558Z,99.99
2018-03-07T03:50:58.503Z,99.99
2018-03-07T03:51:58.515Z,99.99
2018-03-07T03:52:58.516Z,99.99
2018-03-07T03:53:58.519Z,99.99
2018-03-07T03:54:58.492Z,99.99
2018-03-07T03:55:58.525Z,99.99
2018-03-07T03:56:58.497Z,99.99
2018-03-07T03:57:58.516Z,99.99
2018-03-07T03:58:58.533Z,99.99
2018-03-07T03:59:58.501Z,99.99
2018-03-07T04:00:58.509Z,99.99
2018-03-07T04:01:58.491Z,99.99
2018-03-07T04:02:58.495Z,99.99
2018-03-07T04:03:58.483Z,99.99
2018-03-07T04:04:58.532Z,99.99
2018-03-07T04:05:58.611Z,99.99
2018-03-07T04:06:59.427Z,99.99
2018-03-07T04:07:58.503Z,99.99
2018-03-07T04:08:58.489Z,99.99
2018-03-07T04:09:58.515Z,99.99
2018-03-07T04:10:58.483Z,99.99
2018-03-07T04:11:58.483Z,99.99
2018-03-07T04:12:58.482Z,99.99
2018-03-07T04:13:58.510Z,99.99
2018-03-07T04:14:58.489Z,99.99
2018-03-07T04:15:58.484Z,99.99
2018-03-07T04:16:58.488Z,99.99
2018-03-07T04:17:58.482Z,99.99
2018-03-07T04:18:58.512Z,99.99
2018-03-07T04:19:58.495Z,99.99
2018-03-07T04:20:58.486Z,99.99
2018-03-07T04:21:58.535Z,99.99
2018-03-07T04:22:58.487Z,99.99
2018-03-07T04:23:58.553Z,99.99
2018-03-07T04:24:58.492Z,99.99
2018-03-07T04:25:58.490Z,99.99
2018-03-07T04:26:58.478Z,99.99
2018-03-07T04:27:58.527Z,99.99
2018-03-07T04:28:58.511Z,99.99
2018-03-07T04:29:58.484Z,99.99
2018-03-07T04:30:58.554Z,99.99
2018-03-07T04:31:58.525Z,99.99
2018-03-07T04:32:58.600Z,99.99
2018-03-07T04:33:58.480Z,99.99
2018-03-07T04:34:58.482Z,99.99
2018-03-07T04:35:58.492Z,99.99
2018-03-07T04:36:58.484Z,99.99
2018-03-07T04:37:58.522Z,99.99
2018-03-07T04:38:58.537Z,99.99
2018-03-07T04:39:58.479Z,99.99
2018-03-07T04:40:58.479Z,99.99
2018-03-07T04:41:58.475Z,99.99
2018-03-07T04:42:58.497Z,99.99
2018-03-07T04:43:58.487Z,99.99
2018-03-07T04:44:58.474Z,99.99
2018-03-07T04:45:58.578Z,99.99
2018-03-07T04:46:58.501Z,99.99
2018-03-07T04:47:58.514Z,99.99
2018-03-07T04:48:58.475Z,99.99
2018-03-07T04:49:58.477Z,99.99
2018-03-07T04:50:58.482Z,99.99
2018-03-07T04:51:58.513Z,99.99
2018-03-07T04:52:58.495Z,99.99
2018-03-07T04:53:58.502Z,99.99
2018-03-07T04:54:58.468Z,99.99
2018-03-07T04:55:58.511Z,99.99
2018-03-07T04:56:58.506Z,99.99
2018-03-07T04:57:58.468Z,99.99
2018-03-07T04:58:58.489Z,99.99
2018-03-07T04:59:58.521Z,99.99
2018-03-07T05:00:58.480Z,99.99
2018-03-07T05:01:58.481Z,99.99
2018-03-07T05:02:58.474Z,99.99
2018-03-07T05:03:58.524Z,99.99
2018-03-07T05:04:58.489Z,99.99
2018-03-07T05:05:58.512Z,99.99
2018-03-07T05:06:58.505Z,99.99
2018-03-07T05:07:58.476Z,99.99
2018-03-07T05:08:58.471Z,99.99
2018-03-07T05:09:58.479Z,99.99
2018-03-07T05:10:58.473Z,99.99
2018-03-07T05:11:58.475Z,99.99
2018-03-07T05:12:58.490Z,99.99
2018-03-07T05:13:58.487Z,99.99
2018-03-07T05:14:58.491Z,99.99
2018-03-07T05:15:58.468Z,99.99
2018-03-07T05:16:58.466Z,99.99
2018-03-07T05:17:58.464Z,99.99
2018-03-07T05:18:58.476Z,99.99
2018-03-07T05:19:58.473Z,99.99
2018-03-07T05:20:58.490Z,99.99
2018-03-07T05:21:58.470Z,99.99
2018-03-07T05:22:58.491Z,99.99
2018-03-07T05:23:58.482Z,99.99
2018-03-07T05:24:58.484Z,99.99
2018-03-07T05:25:58.470Z,99.99
2018-03-07T05:26:58.540Z,99.99
2018-03-07T05:27:58.502Z,99.99
2018-03-07T05:28:58.465Z,99.99
2018-03-07T05:29:58.479Z,99.99
2018-03-07T05:30:59.441Z,99.99
2018-03-07T05:31:58.464Z,99.99
2018-03-07T05:32:58.558Z,99.99
2018-03-07T05:33:58.490Z,99.99
2018-03-07T05:34:58.460Z,99.99
2018-03-07T05:35:58.460Z,99.99
2018-03-07T05:36:58.465Z,99.99
2018-03-07T05:37:58.531Z,99.99
2018-03-07T05:38:58.460Z,99.99
2018-03-07T05:39:58.473Z,99.99
2018-03-07T05:40:58.460Z,99.99
2018-03-07T05:41:58.488Z,99.99
2018-03-07T05:42:58.467Z,99.99
2018-03-07T05:43:58.456Z,99.99
2018-03-07T05:44:58.492Z,99.99
2018-03-07T05:45:58.455Z,99.99
2018-03-07T05:46:58.495Z,99.99
2018-03-07T05:47:58.485Z,99.99
2018-03-07T05:48:58.461Z,99.99
2018-03-07T05:49:58.482Z,99.99
2018-03-07T05:50:58.452Z,99.99
2018-03-07T05:51:58.500Z,99.99
2018-03-07T05:52:58.460Z,99.99
2018-03-07T05:53:58.460Z,99.99
2018-03-07T05:54:58.451Z,99.99
2018-03-07T05:55:58.461Z,99.99
2018-03-07T05:56:58.451Z,99.99
2018-03-07T05:57:58.608Z,99.99
2018-03-07T05:58:58.456Z,99.99
2018-03-07T05:59:58.457Z,99.99
2018-03-07T06:00:58.459Z,99.99
2018-03-07T06:01:58.452Z,99.99
2018-03-07T06:02:58.503Z,99.99
2018-03-07T06:03:58.456Z,99.99
2018-03-07T06:04:58.473Z,99.99
2018-03-07T06:05:58.482Z,99.99
2018-03-07T06:06:58.542Z,99.99
2018-03-07T06:07:58.451Z,99.99
2018-03-07T06:08:58.456Z,99.99
2018-03-07T06:09:58.437Z,99.99
2018-03-07T06:10:58.496Z,99.99
2018-03-07T06:11:58.442Z,99.99
2018-03-07T06:12:58.494Z,99.99
2018-03-07T06:13:58.448Z,99.99
2018-03-07T06:14:58.441Z,99.99
2018-03-07T06:15:58.448Z,99.99
2018-03-07T06:16:58.475Z,99.99
2018-03-07T06:17:58.437Z,99.99
2018-03-07T06:18:58.452Z,99.99
2018-03-07T06:19:58.457Z,99.99
2018-03-07T06:20:58.569Z,99.99
2018-03-07T06:21:58.467Z,99.99
2018-03-07T06:22:58.473Z,99.99
2018-03-07T06:23:58.436Z,99.99
2018-03-07T06:24:58.447Z,99.99
2018-03-07T06:25:58.433Z,99.99
2018-03-07T06:26:58.435Z,99.99
2018-03-07T06:27:58.436Z,99.99
2018-03-07T06:28:58.438Z,99.99
2018-03-07T06:29:58.438Z,99.99
2018-03-07T06:30:58.438Z,99.99
2018-03-07T06:31:58.432Z,99.99
2018-03-07T06:32:58.458Z,99.99
2018-03-07T06:33:58.470Z,99.99
2018-03-07T06:34:58.464Z,99.99
2018-03-07T06:35:58.442Z,99.99
2018-03-07T06:36:58.485Z,99.99
2018-03-07T06:37:58.486Z,99.99
2018-03-07T06:38:58.428Z,99.99
2018-03-07T06:39:58.432Z,99.99
2018-03-07T06:40:58.421Z,99.99
2018-03-07T06:41:58.439Z,99.99
2018-03-07T06:42:58.429Z,99.99
2018-03-07T06:43:59.782Z,99.99
2018-03-07T06:44:58.464Z,99.99
2018-03-07T06:45:58.438Z,99.99
2018-03-07T06:46:58.434Z,99.99
2018-03-07T06:47:58.430Z,99.99
2018-03-07T06:48:58.464Z,99.99
2018-03-07T06:49:58.433Z,99.99
2018-03-07T06:50:58.428Z,99.99
2018-03-07T06:51:58.962Z,99.99
2018-03-07T06:52:58.429Z,99.99
2018-03-07T06:53:58.460Z,99.99
2018-03-07T06:54:58.481Z,99.99
2018-03-07T06:55:58.418Z,99.99
2018-03-07T06:56:58.445Z,99.99
2018-03-07T06:57:58.421Z,99.99
2018-03-07T06:58:58.426Z,99.99
2018-03-07T06:59:58.448Z,99.99
2018-03-07T07:00:58.433Z,99.99
2018-03-07T07:01:58.439Z,99.99
2018-03-07T07:02:58.421Z,99.99
2018-03-07T07:03:58.414Z,99.99
2018-03-07T07:04:58.579Z,99.99
2018-03-07T07:05:58.415Z,99.99
2018-03-07T07:06:58.474Z,99.99
2018-03-07T07:07:58.417Z,99.99
2018-03-07T07:08:58.449Z,99.99
2018-03-07T07:09:58.447Z,99.99
2018-03-07T07:10:58.433Z,99.99
2018-03-07T07:11:58.443Z,99.99
2018-03-07T07:12:58.449Z,99.99
2018-03-07T07:13:58.487Z,99.99
2018-03-07T07:14:58.965Z,99.99
2018-03-07T07:15:58.463Z,99.99
2018-03-07T07:16:58.445Z,99.99
2018-03-07T07:17:59.461Z,99.99
2018-03-07T07:18:58.416Z,99.99
2018-03-07T07:19:58.449Z,99.99
2018-03-07T07:20:58.599Z,99.99
2018-03-07T07:21:58.530Z,99.99
2018-03-07T07:22:58.441Z,99.99
2018-03-07T07:23:58.422Z,99.99
2018-03-07T07:24:58.468Z,99.99
2018-03-07T07:25:58.420Z,99.99
2018-03-07T07:26:58.972Z,99.99
2018-03-07T07:27:58.422Z,99.99
2018-03-07T07:28:58.491Z,99.99
2018-03-07T07:29:58.422Z,99.99
2018-03-07T07:30:58.975Z,99.99
2018-03-07T07:31:58.421Z,99.07
2018-03-07T07:32:58.420Z,94.32
2018-03-07T07:33:58.428Z,89.07
2018-03-07T07:34:58.457Z,83.97
2018-03-07T07:35:58.969Z,81.10
2018-03-07T07:36:58.464Z,78.33
2018-03-07T07:37:58.437Z,76.94
2018-03-07T07:38:58.487Z,75.16
2018-03-07T07:39:58.456Z,73.25
2018-03-07T07:40:58.472Z,72.43
2018-03-07T07:41:58.479Z,72.05
2018-03-07T07:42:58.442Z,71.19
2018-03-07T07:43:58.438Z,71.47
2018-03-07T07:44:58.447Z,71.72
2018-03-07T07:45:58.461Z,71.72
2018-03-07T07:46:58.452Z,71.86
2018-03-07T07:47:58.473Z,71.63
2018-03-07T07:48:58.558Z,71.63
2018-03-07T07:49:58.496Z,71.67
2018-03-07T07:50:58.458Z,71.47
2018-03-07T07:51:58.471Z,69.79
2018-03-07T07:52:58.462Z,68.64
2018-03-07T07:53:58.458Z,67.72
2018-03-07T07:54:58.464Z,67.37
2018-03-07T07:55:58.460Z,66.22
2018-03-07T07:56:58.480Z,66.96
2018-03-07T07:57:58.498Z,65.26
2018-03-07T07:58:58.500Z,65.17
2018-03-07T07:59:58.535Z,64.82
2018-03-07T08:00:58.504Z,63.13
2018-03-07T08:01:58.536Z,61.79
2018-03-07T08:02:58.540Z,61.24
2018-03-07T08:03:58.556Z,60.47
2018-03-07T08:04:59.493Z,60.47
2018-03-07T08:05:58.691Z,60.09
2018-03-07T08:06:58.526Z,59.42
2018-03-07T08:07:58.520Z,59.61
2018-03-07T08:08:58.575Z,59.61
2018-03-07T08:09:58.528Z,59.64
2018-03-07T08:10:58.562Z,58.87
2018-03-07T08:11:58.564Z,58.01
2018-03-07T08:12:58.537Z,57.08
2018-03-07T08:13:58.547Z,56.60
2018-03-07T08:14:58.538Z,56.79
2018-03-07T08:15:59.087Z,56.57
2018-03-07T08:16:58.558Z,56.93
2018-03-07T08:17:58.566Z,57.89
2018-03-07T08:18:58.567Z,58.08
2018-03-07T08:19:59.488Z,57.24
2018-03-07T08:20:58.608Z,56.31
2018-03-07T08:21:58.572Z,56.38
2018-03-07T08:22:58.600Z,57.43
2018-03-07T08:23:58.595Z,57.53
2018-03-07T08:24:58.681Z,58.12
2018-03-07T08:25:59.497Z,58.62
2018-03-07T08:26:58.691Z,58.17
2018-03-07T08:27:58.646Z,56.76
2018-03-07T08:28:58.685Z,56.48
2018-03-07T08:29:58.645Z,56.04
2018-03-07T08:30:58.642Z,56.74
2018-03-07T08:31:58.674Z,57.67
2018-03-07T08:32:58.658Z,57.24
2018-03-07T08:33:58.691Z,55.35
2018-03-07T08:34:58.654Z,54.58
2018-03-07T08:35:59.542Z,55.33
2018-03-07T08:36:58.688Z,55.62
2018-03-07T08:37:58.744Z,54.04
2018-03-07T08:38:58.797Z,52.98
2018-03-07T08:39:58.707Z,53.17
2018-03-07T08:40:58.740Z,52.95
2018-03-07T08:41:58.741Z,54.58
2018-03-07T08:42:58.725Z,54.49
2018-03-07T08:43:58.744Z,52.89
2018-03-07T08:44:58.786Z,52.69
2018-03-07T08:45:58.805Z,52.81
2018-03-07T08:46:58.804Z,50.25
2018-03-07T08:47:58.799Z,50.82
2018-03-07T08:48:58.863Z,50.73
2018-03-07T08:49:58.810Z,50.56
2018-03-07T08:50:58.822Z,49.60
2018-03-07T08:51:58.829Z,49.38
2018-03-07T08:52:58.829Z,49.57
2018-03-07T08:53:58.822Z,49.67
2018-03-07T08:54:58.866Z,49.69
2018-03-07T08:55:58.853Z,48.35
2018-03-07T08:56:59.513Z,47.58
2018-03-07T08:57:58.865Z,48.30
2018-03-07T08:58:58.867Z,49.88
2018-03-07T08:59:58.917Z,50.70
2018-03-07T09:00:58.904Z,50.78
2018-03-07T09:01:58.913Z,51.28
2018-03-07T09:02:58.943Z,50.61
2018-03-07T09:03:58.918Z,49.57
2018-03-07T09:04:58.930Z,48.71
2018-03-07T09:05:58.944Z,47.70
2018-03-07T09:06:59.524Z,47.68
2018-03-07T09:07:58.960Z,47.87
2018-03-07T09:08:58.990Z,47.24
2018-03-07T09:09:58.990Z,47.10
2018-03-07T09:10:59.000Z,47.27
2018-03-07T09:11:59.010Z,48.83
2018-03-07T09:12:59.103Z,46.43
2018-03-07T09:13:59.025Z,45.34
2018-03-07T09:14:59.037Z,44.41
2018-03-07T09:15:59.107Z,45.83
2018-03-07T09:17:00.024Z,45.87
2018-03-07T09:17:59.123Z,45.10
2018-03-07T09:18:59.129Z,45.76
2018-03-07T09:19:59.109Z,46.45
2018-03-07T09:20:59.118Z,45.68
2018-03-07T09:21:59.156Z,46.53
2018-03-07T09:22:59.128Z,47.30
2018-03-07T09:23:59.156Z,48.04
2018-03-07T09:24:59.147Z,48.35
2018-03-07T09:25:59.160Z,46.26
2018-03-07T09:26:59.174Z,45.20
2018-03-07T09:27:59.202Z,44.79
2018-03-07T09:28:59.196Z,45.18
2018-03-07T09:29:59.289Z,45.28
2018-03-07T09:30:59.230Z,46.00
2018-03-07T09:31:59.254Z,47.27
2018-03-07T09:32:59.240Z,45.87
2018-03-07T09:33:59.250Z,44.91
2018-03-07T09:34:59.446Z,43.78
2018-03-07T09:35:59.378Z,43.11
2018-03-07T09:36:59.288Z,44.02
2018-03-07T09:38:00.112Z,45.85
2018-03-07T09:38:59.326Z,45.97
2018-03-07T09:39:59.328Z,44.96
2018-03-07T09:40:59.363Z,42.30
2018-03-07T09:41:59.669Z,40.47
2018-03-07T09:42:59.381Z,39.70
2018-03-07T09:43:59.887Z,40.09
2018-03-07T09:45:00.044Z,39.99
2018-03-07T09:45:59.496Z,39.14
2018-03-07T09:46:59.488Z,38.54
2018-03-07T09:48:00.105Z,39.86
2018-03-07T09:48:59.436Z,40.26
2018-03-07T09:49:59.457Z,40.30
2018-03-07T09:50:59.471Z,42.58
2018-03-07T09:51:59.516Z,43.54
2018-03-07T09:52:59.529Z,44.34
2018-03-07T09:53:59.526Z,42.65
2018-03-07T09:54:59.738Z,41.89
2018-03-07T09:55:59.558Z,39.99
2018-03-07T09:56:59.648Z,39.14
2018-03-07T09:57:59.686Z,38.53
2018-03-07T09:58:59.659Z,38.56
2018-03-07T09:59:59.602Z,39.81
2018-03-07T10:00:59.649Z,41.64
2018-03-07T10:01:59.686Z,41.56
2018-03-07T10:02:59.646Z,42.20
2018-03-07T10:03:59.662Z,41.35
2018-03-07T10:04:59.656Z,41.16
2018-03-07T10:05:59.709Z,40.80
2018-03-07T10:06:59.843Z,41.72
2018-03-07T10:08:00.585Z,42.85
2018-03-07T10:08:59.757Z,44.10
2018-03-07T10:09:59.788Z,43.52
2018-03-07T10:10:59.758Z,43.21
2018-03-07T10:11:59.878Z,43.52
2018-03-07T10:12:59.970Z,41.83
2018-03-07T10:13:59.777Z,40.91
2018-03-07T10:14:59.792Z,38.24
2018-03-07T10:15:59.923Z,39.06
2018-03-07T10:16:59.828Z,39.37
2018-03-07T10:17:59.939Z,38.26
2018-03-07T10:18:59.848Z,38.24
2018-03-07T10:19:59.884Z,39.91
2018-03-07T10:20:59.876Z,41.14
2018-03-07T10:21:59.889Z,41.60
2018-03-07T10:23:00.633Z,41.76
2018-03-07T10:23:59.924Z,39.49
2018-03-07T10:25:00.274Z,38.89
2018-03-07T10:25:59.988Z,38.76
2018-03-07T10:26:59.992Z,41.20
2018-03-07T10:27:59.998Z,42.83
2018-03-07T10:29:00.047Z,42.18
2018-03-07T10:30:00.266Z,41.74
2018-03-07T10:31:00.028Z,39.66
2018-03-07T10:32:00.759Z,38.53
2018-03-07T10:33:01.123Z,37.58
2018-03-07T10:34:00.118Z,36.71
2018-03-07T10:35:00.161Z,36.60
2018-03-07T10:36:00.119Z,36.60
2018-03-07T10:37:00.120Z,36.51
2018-03-07T10:38:00.141Z,36.60
2018-03-07T10:39:00.141Z,37.35
2018-03-07T10:40:00.183Z,38.02
2018-03-07T10:41:00.239Z,38.31
2018-03-07T10:42:00.201Z,38.01
2018-03-07T10:43:00.342Z,37.52
2018-03-07T10:44:00.279Z,37.93
2018-03-07T10:45:00.321Z,37.18
2018-03-07T10:46:00.300Z,36.99
2018-03-07T10:47:00.282Z,35.93
2018-03-07T10:48:00.340Z,36.33
2018-03-07T10:49:00.325Z,35.89
2018-03-07T10:50:00.323Z,37.89
2018-03-07T10:51:00.388Z,37.62
2018-03-07T10:52:00.404Z,37.45
2018-03-07T10:53:01.193Z,37.26
2018-03-07T10:54:00.399Z,36.76
2018-03-07T10:55:00.399Z,37.93
2018-03-07T10:56:00.451Z,37.91
2018-03-07T10:57:00.425Z,38.02
2018-03-07T10:58:00.466Z,36.51
2018-03-07T10:59:00.533Z,34.78
2018-03-07T11:00:00.472Z,34.69
2018-03-07T11:01:00.499Z,34.21
2018-03-07T11:02:00.518Z,34.29
2018-03-07T11:03:00.535Z,35.73
2018-03-07T11:04:00.586Z,36.49
2018-03-07T11:05:00.569Z,37.06
2018-03-07T11:06:00.577Z,37.35
2018-03-07T11:07:00.592Z,37.14
2018-03-07T11:08:00.713Z,35.99
2018-03-07T11:09:00.634Z,37.32
2018-03-07T11:10:00.828Z,36.85
2018-03-07T11:11:00.668Z,35.73
2018-03-07T11:12:00.687Z,35.06
2018-03-07T11:13:00.689Z,35.49
2018-03-07T11:14:00.736Z,37.22
2018-03-07T11:15:00.730Z,36.83
2018-03-07T11:16:00.744Z,37.68
2018-03-07T11:17:00.755Z,38.26
2018-03-07T11:18:00.895Z,38.84
2018-03-07T11:19:00.821Z,38.37
2018-03-07T11:20:00.811Z,36.47
2018-03-07T11:21:00.846Z,37.30
2018-03-07T11:22:00.870Z,38.85
2018-03-07T11:23:00.863Z,37.34
2018-03-07T11:24:00.910Z,37.91
2018-03-07T11:25:00.898Z,38.10
2018-03-07T11:26:00.905Z,37.62
2018-03-07T11:27:01.023Z,37.16
2018-03-07T11:28:00.936Z,36.82
2018-03-07T11:29:00.959Z,37.10
2018-03-07T11:30:02.748Z,37.68
2018-03-07T11:31:01.191Z,37.68
2018-03-07T11:32:01.022Z,38.84
2018-03-07T11:33:01.053Z,39.91
2018-03-07T11:34:01.052Z,38.54
2018-03-07T11:35:01.107Z,39.31
2018-03-07T11:36:01.076Z,40.64
2018-03-07T11:37:01.091Z,40.85
2018-03-07T11:38:01.649Z,40.37
2018-03-07T11:39:01.140Z,38.78
2018-03-07T11:40:01.198Z,37.43
2018-03-07T11:41:01.162Z,38.74
2018-03-07T11:42:01.168Z,39.58
2018-03-07T11:43:01.211Z,39.91
2018-03-07T11:44:01.238Z,39.03
2018-03-07T11:45:01.274Z,39.33
2018-03-07T11:46:01.267Z,37.43
2018-03-07T11:47:01.261Z,37.12
2018-03-07T11:48:01.288Z,36.93
2018-03-07T11:49:01.309Z,37.95
2018-03-07T11:50:01.324Z,40.41
2018-03-07T11:51:01.418Z,41.37
2018-03-07T11:52:01.336Z,42.30
2018-03-07T11:53:02.157Z,42.79
2018-03-07T11:54:01.441Z,43.36
2018-03-07T11:55:01.374Z,43.91
2018-03-07T11:56:01.414Z,44.70
2018-03-07T11:57:01.462Z,45.95
2018-03-07T11:58:01.479Z,46.12
2018-03-07T11:59:01.430Z,46.50
2018-03-07T12:00:01.521Z,46.96
2018-03-07T12:01:01.505Z,47.17
2018-03-07T12:02:01.481Z,47.27
2018-03-07T12:03:01.609Z,47.75
2018-03-07T12:04:01.506Z,48.44
2018-03-07T12:05:01.503Z,47.49
2018-03-07T12:06:01.545Z,47.17
2018-03-07T12:07:01.533Z,46.96
2018-03-07T12:08:01.553Z,48.66
2018-03-07T12:09:30.220Z,49.86
2018-03-07T12:10:01.567Z,51.07
2018-03-07T12:11:01.588Z,52.25
2018-03-07T12:12:01.721Z,51.10
2018-03-07T12:13:01.619Z,51.10
2018-03-07T12:14:01.595Z,51.01
2018-03-07T12:15:01.612Z,49.60
2018-03-07T12:16:01.609Z,49.98
2018-03-07T12:17:01.636Z,49.40
2018-03-07T12:18:01.633Z,50.15
2018-03-07T12:19:02.673Z,50.89
2018-03-07T12:20:01.729Z,51.56
2018-03-07T12:21:01.684Z,52.42
2018-03-07T12:22:01.689Z,52.29
2018-03-07T12:23:02.174Z,53.25
2018-03-07T12:24:01.792Z,53.06
2018-03-07T12:25:01.693Z,52.96
2018-03-07T12:26:01.690Z,52.87
2018-03-07T12:27:02.676Z,53.25
2018-03-07T12:28:01.713Z,53.82
2018-03-07T12:29:01.778Z,53.73
2018-03-07T12:30:01.760Z,53.82
2018-03-07T12:31:01.728Z,54.21
2018-03-07T12:32:01.787Z,54.11
2018-03-07T12:33:01.797Z,54.52
2018-03-07T12:34:02.297Z,53.75
2018-03-07T12:35:02.762Z,53.08
2018-03-07T12:36:01.772Z,51.93
2018-03-07T12:37:01.912Z,52.58
2018-03-07T12:38:01.801Z,53.92
2018-03-07T12:39:01.802Z,53.82
2018-03-07T12:40:01.868Z,53.92
2018-03-07T12:41:01.813Z,53.92
2018-03-07T12:42:01.826Z,54.30
2018-03-07T12:43:01.808Z,54.39
2018-03-07T12:44:01.825Z,54.30
2018-03-07T12:45:01.922Z,54.37
2018-03-07T12:46:01.836Z,54.37
2018-03-07T12:47:01.880Z,54.08
2018-03-07T12:48:01.841Z,54.66
2018-03-07T12:49:01.949Z,55.32
2018-03-07T12:50:01.950Z,54.37
2018-03-07T12:51:01.860Z,54.08
2018-03-07T12:52:01.899Z,53.70
2018-03-07T12:53:01.925Z,53.80